Saint Helens, Oregon
Current Conditions -  °F | °C
As of 7:53 AM on Saturday 20 Dec 2014 (Local Time) from KSPB Reporting Station
Light Rain Light Rain  
Wind Chill: 43°   Ceiling: 1200
Heat Index: 47°   Visibility: 5mi
Dew Point: 44°   Wind: 9mph
Humidity: 90%   Direction: 130°SE
Pressure: 29.7"   Gusts: NA
Location:  45.86°N, 122.81°W
Report Text: KSPB 201553Z AUTO 13008KT 5SM -RA BR OVC012 08/07 A2970 RMK AO2 SLP057 P0006 T00830067
Loading
Personal Weather Stations






























Interactive Weather Map New forecast layout! Learn more

10-Day Weather Forecast

Advertisements
Track Severe Weather on mobile